createdAt,value
2018-11-12T00:00:58.895Z,11.07
2018-11-12T00:03:32.585Z,11.11
2018-11-12T00:06:05.743Z,11.12
2018-11-12T00:08:40.461Z,11.14
2018-11-12T00:11:14.573Z,11.16
2018-11-12T00:13:48.299Z,11.16
2018-11-12T00:16:21.974Z,11.14
2018-11-12T00:18:55.399Z,11.13
2018-11-12T00:21:28.422Z,11.14
2018-11-12T00:24:01.374Z,11.15
2018-11-12T00:26:35.674Z,11.15
2018-11-12T00:29:08.485Z,11.18
2018-11-12T00:31:43.966Z,11.20
2018-11-12T00:34:22.011Z,11.20
2018-11-12T00:36:55.938Z,11.22
2018-11-12T00:39:32.560Z,11.21
2018-11-12T00:42:05.482Z,11.21
2018-11-12T00:44:38.314Z,11.22
2018-11-12T00:47:11.357Z,11.23
2018-11-12T00:49:44.181Z,11.24
2018-11-12T00:52:17.475Z,11.25
2018-11-12T00:54:51.170Z,11.23
2018-11-12T00:57:24.841Z,11.25
2018-11-12T00:59:57.262Z,11.21
2018-11-12T01:02:44.486Z,11.20
2018-11-12T01:05:18.024Z,11.18
2018-11-12T01:07:51.292Z,11.17
2018-11-12T01:10:42.573Z,11.20
2018-11-12T01:13:21.030Z,11.24
2018-11-12T01:15:53.506Z,11.23
2018-11-12T01:18:28.914Z,11.25
2018-11-12T01:21:05.657Z,11.24
2018-11-12T01:23:39.722Z,11.25
2018-11-12T01:26:14.213Z,11.24
2018-11-12T01:28:47.253Z,11.26
2018-11-12T01:31:19.809Z,11.27
2018-11-12T01:33:53.856Z,11.26
2018-11-12T01:36:26.381Z,11.25
2018-11-12T01:38:59.863Z,11.25
2018-11-12T01:41:32.645Z,11.25
2018-11-12T01:44:06.398Z,11.25
2018-11-12T01:46:38.990Z,11.26
2018-11-12T01:49:12.963Z,11.29
2018-11-12T01:51:45.577Z,11.29
2018-11-12T01:54:19.220Z,11.31
2018-11-12T01:56:53.750Z,11.32
2018-11-12T01:59:26.419Z,11.31
2018-11-12T02:01:59.825Z,11.31
2018-11-12T02:04:34.872Z,11.30
2018-11-12T02:07:08.250Z,11.31
2018-11-12T02:09:40.828Z,11.31
2018-11-12T02:12:13.760Z,11.28
2018-11-12T02:14:47.225Z,11.25
2018-11-12T02:17:19.825Z,11.22
2018-11-12T02:19:54.508Z,11.24
2018-11-12T02:22:27.330Z,11.24
2018-11-12T02:24:59.846Z,11.23
2018-11-12T02:27:32.966Z,11.22
2018-11-12T02:30:23.897Z,11.23
2018-11-12T02:32:56.435Z,11.21
2018-11-12T02:35:29.403Z,11.24
2018-11-12T02:38:02.201Z,11.24
2018-11-12T02:40:35.014Z,11.25
2018-11-12T02:43:10.068Z,11.27
2018-11-12T02:45:45.716Z,11.27
2018-11-12T02:48:19.704Z,11.29
2018-11-12T02:50:53.254Z,11.31
2018-11-12T02:53:26.070Z,11.31
2018-11-12T02:55:58.684Z,11.33
2018-11-12T02:58:32.602Z,11.34
2018-11-12T03:01:05.538Z,11.35
2018-11-12T03:03:41.833Z,11.36
2018-11-12T03:06:15.131Z,11.37
2018-11-12T03:08:47.543Z,11.38
2018-11-12T03:11:20.232Z,11.40
2018-11-12T03:13:52.840Z,11.40
2018-11-12T03:16:25.989Z,11.42
2018-11-12T03:18:59.131Z,11.43
2018-11-12T03:21:33.402Z,11.43
2018-11-12T03:24:08.281Z,11.41
2018-11-12T03:26:41.045Z,11.42
2018-11-12T03:29:13.607Z,11.40
2018-11-12T03:31:46.637Z,11.41
2018-11-12T03:34:20.486Z,11.41
2018-11-12T03:36:53.153Z,11.38
2018-11-12T03:39:25.988Z,11.39
2018-11-12T03:41:58.539Z,11.36
2018-11-12T03:44:31.725Z,11.36
2018-11-12T03:47:07.143Z,11.35
2018-11-12T03:49:39.792Z,11.34
2018-11-12T03:52:13.346Z,11.33
2018-11-12T03:54:46.975Z,11.32
2018-11-12T03:57:19.542Z,11.31
2018-11-12T03:59:52.873Z,11.32
2018-11-12T04:02:27.526Z,11.30
2018-11-12T04:05:00.171Z,11.30
2018-11-12T04:07:32.889Z,11.28
2018-11-12T04:10:14.476Z,11.28
2018-11-12T04:12:47.909Z,11.28
2018-11-12T04:15:23.179Z,11.28
2018-11-12T04:17:56.179Z,11.27
2018-11-12T04:20:28.950Z,11.27
2018-11-12T04:23:04.490Z,11.26
2018-11-12T04:25:39.339Z,11.24
2018-11-12T04:28:11.938Z,11.29
2018-11-12T04:30:45.334Z,11.48
2018-11-12T04:33:18.156Z,11.46
2018-11-12T04:35:51.685Z,11.39
2018-11-12T04:38:24.337Z,11.34
2018-11-12T04:40:57.760Z,11.46
2018-11-12T04:43:30.646Z,11.41
2018-11-12T04:46:04.059Z,11.33
2018-11-12T04:48:38.506Z,11.27
2018-11-12T04:51:11.883Z,11.24
2018-11-12T04:53:45.331Z,11.20
2018-11-12T04:56:17.853Z,11.22
2018-11-12T04:58:50.885Z,11.21
2018-11-12T05:01:23.481Z,11.20
2018-11-12T05:03:56.027Z,11.23
2018-11-12T05:06:32.544Z,11.20
2018-11-12T05:09:10.546Z,11.19
2018-11-12T05:11:44.197Z,11.18
2018-11-12T05:14:18.905Z,11.18
2018-11-12T05:16:51.775Z,11.17
2018-11-12T05:19:25.091Z,11.18
2018-11-12T05:21:58.046Z,11.17
2018-11-12T05:24:30.809Z,11.16
2018-11-12T05:27:05.656Z,11.21
2018-11-12T05:29:39.234Z,11.24
2018-11-12T05:32:11.948Z,11.20
2018-11-12T05:34:44.686Z,11.23
2018-11-12T05:37:19.875Z,11.20
2018-11-12T05:39:53.357Z,11.18
2018-11-12T05:42:26.109Z,11.16
2018-11-12T05:45:01.037Z,11.17
2018-11-12T05:47:35.693Z,11.15
2018-11-12T05:50:18.468Z,11.13
2018-11-12T05:52:55.060Z,11.13
2018-11-12T05:55:28.674Z,11.13
2018-11-12T05:58:04.720Z,11.14
2018-11-12T06:00:37.469Z,11.14
2018-11-12T06:03:10.303Z,11.15
2018-11-12T06:05:50.366Z,11.18
2018-11-12T06:08:27.138Z,11.17
2018-11-12T06:11:01.015Z,11.16
2018-11-12T06:13:33.831Z,11.15
2018-11-12T06:16:08.574Z,11.14
2018-11-12T06:18:43.494Z,11.13
2018-11-12T06:21:18.746Z,11.13
2018-11-12T06:23:51.497Z,11.13
2018-11-12T06:26:24.828Z,11.13
2018-11-12T06:29:01.834Z,11.12
2018-11-12T06:31:36.007Z,11.12
2018-11-12T06:34:08.570Z,11.13
2018-11-12T06:36:42.234Z,11.12
2018-11-12T06:39:19.451Z,11.13
2018-11-12T06:41:52.438Z,11.13
2018-11-12T06:44:25.470Z,11.14
2018-11-12T06:46:58.940Z,11.13
2018-11-12T06:49:36.369Z,11.12
2018-11-12T06:52:17.073Z,11.12
2018-11-12T06:54:52.465Z,11.18
2018-11-12T06:57:29.738Z,11.17
2018-11-12T07:00:06.679Z,11.16
2018-11-12T07:02:47.132Z,11.15
2018-11-12T07:05:20.314Z,11.15
2018-11-12T07:07:53.746Z,11.15
2018-11-12T07:10:37.469Z,11.15
2018-11-12T07:13:14.866Z,11.16
2018-11-12T07:15:51.995Z,11.17
2018-11-12T07:18:27.310Z,11.17
2018-11-12T07:20:59.831Z,11.24
2018-11-12T07:23:34.319Z,11.24
2018-11-12T07:26:11.387Z,11.22
2018-11-12T07:28:51.589Z,11.23
2018-11-12T07:31:26.321Z,11.30
2018-11-12T07:34:00.650Z,11.29
2018-11-12T07:36:33.825Z,11.29
2018-11-12T07:39:13.141Z,11.30
2018-11-12T07:41:47.342Z,11.43
2018-11-12T07:44:22.182Z,11.47
2018-11-12T07:46:55.621Z,11.49
2018-11-12T07:49:29.985Z,11.47
2018-11-12T07:52:05.503Z,11.51
2018-11-12T07:54:48.265Z,11.48
2018-11-12T07:57:21.845Z,11.49
2018-11-12T07:59:55.482Z,11.51
2018-11-12T08:02:28.769Z,11.55
2018-11-12T08:05:04.137Z,11.55
2018-11-12T08:07:40.071Z,11.56
2018-11-12T08:10:16.751Z,11.58
2018-11-12T08:13:06.226Z,11.59
2018-11-12T08:15:38.869Z,11.62
2018-11-12T08:18:13.065Z,11.64
2018-11-12T08:20:47.659Z,11.69
2018-11-12T08:23:22.088Z,11.74
2018-11-12T08:25:54.718Z,11.81
2018-11-12T08:28:29.403Z,11.86
2018-11-12T08:31:11.307Z,11.93
2018-11-12T08:33:59.850Z,11.97
2018-11-12T08:36:37.210Z,12.10
2018-11-12T08:39:16.772Z,12.22
2018-11-12T08:41:51.024Z,12.29
2018-11-12T08:44:27.334Z,12.25
2018-11-12T08:47:01.548Z,12.25
2018-11-12T08:49:34.958Z,12.30
2018-11-12T08:52:14.868Z,12.42
2018-11-12T08:54:50.393Z,12.62
2018-11-12T08:57:35.447Z,12.77
2018-11-12T09:00:13.951Z,12.93
2018-11-12T09:02:48.516Z,13.10
2018-11-12T09:05:22.729Z,13.18
2018-11-12T09:08:00.105Z,13.26
2018-11-12T09:10:39.303Z,13.33
2018-11-12T09:13:13.746Z,13.37
2018-11-12T09:15:46.845Z,13.45
2018-11-12T09:18:23.477Z,13.54
2018-11-12T09:20:59.164Z,13.70
2018-11-12T09:23:33.946Z,13.91
2018-11-12T09:26:10.414Z,14.10
2018-11-12T09:28:53.896Z,14.25
2018-11-12T09:31:27.778Z,14.45
2018-11-12T09:34:00.706Z,14.56
2018-11-12T09:36:34.796Z,14.62
2018-11-12T09:39:12.528Z,14.69
2018-11-12T09:41:52.762Z,14.76
2018-11-12T09:44:29.607Z,14.89
2018-11-12T09:47:04.160Z,15.11
2018-11-12T09:49:42.418Z,15.32
2018-11-12T09:52:20.613Z,15.44
2018-11-12T09:54:54.130Z,15.47
2018-11-12T09:57:32.472Z,15.50
2018-11-12T10:00:10.996Z,15.71
2018-11-12T10:02:46.771Z,16.06
2018-11-12T10:05:34.772Z,16.51
2018-11-12T10:08:13.716Z,16.39
2018-11-12T10:10:56.157Z,16.36
2018-11-12T10:13:33.573Z,16.52
2018-11-12T10:16:13.909Z,16.46
2018-11-12T10:18:48.452Z,16.26
2018-11-12T10:21:23.255Z,16.11
2018-11-12T10:23:56.559Z,16.00
2018-11-12T10:26:30.209Z,15.93
2018-11-12T10:29:03.443Z,15.89
2018-11-12T10:31:37.631Z,15.90
2018-11-12T10:34:13.767Z,15.95
2018-11-12T10:36:47.990Z,16.04
2018-11-12T10:39:25.753Z,16.14
2018-11-12T10:42:00.539Z,16.50
2018-11-12T10:44:37.990Z,17.00
2018-11-12T10:47:16.247Z,17.21
2018-11-12T10:49:51.088Z,17.21
2018-11-12T10:52:32.773Z,17.07
2018-11-12T10:55:11.283Z,17.05
2018-11-12T10:57:47.830Z,17.20
2018-11-12T11:00:36.776Z,17.53
2018-11-12T11:03:17.863Z,17.60
2018-11-12T11:06:05.446Z,17.54
2018-11-12T11:08:43.304Z,17.42
2018-11-12T11:11:22.978Z,17.34
2018-11-12T11:13:59.445Z,17.27
2018-11-12T11:16:32.826Z,17.23
2018-11-12T11:19:10.858Z,17.25
2018-11-12T11:21:45.038Z,17.31
2018-11-12T11:24:18.505Z,17.40
2018-11-12T11:26:53.850Z,17.52
2018-11-12T11:29:37.128Z,18.00
2018-11-12T11:32:14.662Z,18.55
2018-11-12T11:34:51.279Z,18.69
2018-11-12T11:37:25.351Z,18.69
2018-11-12T11:39:59.444Z,19.22
2018-11-12T11:42:33.445Z,19.37
2018-11-12T11:45:13.235Z,19.16
2018-11-12T11:47:50.764Z,19.02
2018-11-12T11:50:31.638Z,19.08
2018-11-12T11:53:06.381Z,19.08
2018-11-12T11:55:42.452Z,19.33
2018-11-12T11:58:17.091Z,19.39
2018-11-12T12:00:59.823Z,19.35
2018-11-12T12:03:46.423Z,19.46
2018-11-12T12:06:24.627Z,19.56
2018-11-12T12:09:00.821Z,19.38
2018-11-12T12:11:39.228Z,19.27
2018-11-12T12:14:15.000Z,19.18
2018-11-12T12:17:01.328Z,19.06
2018-11-12T12:19:42.123Z,18.96
2018-11-12T12:22:19.398Z,18.93
2018-11-12T12:24:59.635Z,18.92
2018-11-12T12:27:37.690Z,18.90
2018-11-12T12:30:29.720Z,18.84
2018-11-12T12:33:12.379Z,18.79
2018-11-12T12:35:51.386Z,18.79
2018-11-12T12:38:30.665Z,18.81
2018-11-12T12:41:21.390Z,18.82
2018-11-12T12:43:56.946Z,18.78
2018-11-12T12:46:48.852Z,18.75
2018-11-12T12:49:27.177Z,18.65
2018-11-12T12:52:05.158Z,18.32
2018-11-12T12:54:48.422Z,18.00
2018-11-12T12:57:39.514Z,17.74
2018-11-12T13:00:21.231Z,17.29
2018-11-12T13:02:55.615Z,16.92
2018-11-12T13:05:32.565Z,16.61
2018-11-12T13:08:07.088Z,16.31
2018-11-12T13:10:47.615Z,15.97
2018-11-12T13:13:22.045Z,15.60
2018-11-12T13:16:06.113Z,15.23
2018-11-12T13:18:46.361Z,14.93
2018-11-12T13:21:22.882Z,14.68
2018-11-12T13:23:58.267Z,14.51
2018-11-12T13:26:34.926Z,14.32
2018-11-12T13:29:11.952Z,14.18
2018-11-12T13:31:46.946Z,14.08
2018-11-12T13:34:22.745Z,13.97
2018-11-12T13:36:59.865Z,13.92
2018-11-12T13:39:35.431Z,13.86
2018-11-12T13:42:08.934Z,13.82
2018-11-12T13:44:42.337Z,13.79
2018-11-12T13:47:18.443Z,13.78
2018-11-12T13:50:00.680Z,13.77
2018-11-12T13:52:42.392Z,13.76
2018-11-12T13:55:33.766Z,13.74
2018-11-12T13:58:07.930Z,13.73
2018-11-12T14:00:42.497Z,13.73
2018-11-12T14:03:19.691Z,13.70
2018-11-12T14:05:54.935Z,13.67
2018-11-12T14:08:30.964Z,13.63
2018-11-12T14:11:09.508Z,13.62
2018-11-12T14:13:44.573Z,13.59
2018-11-12T14:16:22.938Z,13.58
2018-11-12T14:18:57.854Z,13.57
2018-11-12T14:21:34.725Z,13.58
2018-11-12T14:24:10.635Z,13.60
2018-11-12T14:27:06.358Z,13.57
2018-11-12T14:29:40.648Z,13.49
2018-11-12T14:32:19.962Z,13.44
2018-11-12T14:34:57.790Z,13.43
2018-11-12T14:37:38.627Z,13.37
2018-11-12T14:40:16.416Z,13.32
2018-11-12T14:42:57.615Z,13.29
2018-11-12T14:45:30.763Z,13.24
2018-11-12T14:48:06.603Z,13.20
2018-11-12T14:50:42.673Z,13.14
2018-11-12T14:53:16.633Z,13.08
2018-11-12T14:55:51.245Z,13.02
2018-11-12T14:58:24.880Z,12.95
2018-11-12T15:00:59.029Z,12.90
2018-11-12T15:03:33.752Z,12.84
2018-11-12T15:06:11.363Z,12.78
2018-11-12T15:08:47.030Z,12.75
2018-11-12T15:11:22.576Z,12.70
2018-11-12T15:13:56.299Z,12.70
2018-11-12T15:16:31.261Z,12.68
2018-11-12T15:19:06.688Z,12.66
2018-11-12T15:21:41.586Z,12.64
2018-11-12T15:24:16.474Z,12.62
2018-11-12T15:26:56.627Z,12.61
2018-11-12T15:29:29.563Z,12.60
2018-11-12T15:32:06.793Z,12.58
2018-11-12T15:34:42.481Z,12.55
2018-11-12T15:37:18.455Z,12.52
2018-11-12T15:39:53.368Z,12.47
2018-11-12T15:42:26.404Z,12.44
2018-11-12T15:45:06.449Z,12.41
2018-11-12T15:47:44.050Z,12.39
2018-11-12T15:50:36.770Z,12.37
2018-11-12T15:53:16.197Z,12.33
2018-11-12T15:55:56.213Z,12.30
2018-11-12T15:58:34.757Z,12.31
2018-11-12T16:01:10.725Z,12.27
2018-11-12T16:03:46.302Z,12.24
2018-11-12T16:06:24.400Z,12.20
2018-11-12T16:09:04.806Z,12.17
2018-11-12T16:11:38.864Z,12.19
2018-11-12T16:14:16.439Z,12.15
2018-11-12T16:16:50.417Z,12.13
2018-11-12T16:19:25.817Z,12.10
2018-11-12T16:22:01.178Z,12.09
2018-11-12T16:24:35.717Z,12.05
2018-11-12T16:27:12.418Z,12.02
2018-11-12T16:29:46.711Z,11.98
2018-11-12T16:32:28.909Z,11.96
2018-11-12T16:35:12.308Z,11.94
2018-11-12T16:37:50.835Z,11.91
2018-11-12T16:40:38.920Z,11.90
2018-11-12T16:43:18.196Z,11.89
2018-11-12T16:45:52.676Z,11.88
2018-11-12T16:48:52.973Z,11.87
2018-11-12T16:51:33.238Z,11.85
2018-11-12T16:54:10.665Z,11.88
2018-11-12T16:56:53.067Z,11.88
2018-11-12T16:59:27.715Z,11.85
2018-11-12T17:02:13.759Z,11.82
2018-11-12T17:04:49.669Z,11.83
2018-11-12T17:07:52.765Z,11.80
2018-11-12T17:10:31.038Z,11.76
2018-11-12T17:13:09.402Z,11.75
2018-11-12T17:15:45.781Z,11.74
2018-11-12T17:18:47.859Z,11.73
2018-11-12T17:21:26.411Z,11.72
2018-11-12T17:24:03.674Z,11.69
2018-11-12T17:26:42.371Z,11.69
2018-11-12T17:29:17.068Z,11.71
2018-11-12T17:31:51.928Z,11.69
2018-11-12T17:34:28.177Z,11.67
2018-11-12T17:37:18.538Z,11.65
2018-11-12T17:39:58.097Z,11.63
2018-11-12T17:42:37.399Z,11.63
2018-11-12T17:45:16.224Z,11.63
2018-11-12T17:47:51.504Z,11.62
2018-11-12T17:50:29.187Z,11.60
2018-11-12T17:53:08.832Z,11.63
2018-11-12T17:55:51.119Z,11.62
2018-11-12T17:58:32.342Z,11.62
2018-11-12T18:01:10.776Z,11.62
2018-11-12T18:03:46.785Z,11.61
2018-11-12T18:06:29.363Z,11.61
2018-11-12T18:09:14.601Z,11.61
2018-11-12T18:11:58.478Z,11.59
2018-11-12T18:14:35.412Z,11.61
2018-11-12T18:17:16.617Z,11.64
2018-11-12T18:19:55.471Z,11.63
2018-11-12T18:22:32.682Z,11.67
2018-11-12T18:25:17.261Z,11.63
2018-11-12T18:28:09.676Z,11.64
2018-11-12T18:31:10.112Z,11.57
2018-11-12T18:33:48.373Z,11.53
2018-11-12T18:36:29.633Z,11.50
2018-11-12T18:39:15.798Z,11.49
2018-11-12T18:41:58.334Z,11.47
2018-11-12T18:44:45.429Z,11.44
2018-11-12T18:47:25.065Z,11.42
2018-11-12T18:50:05.941Z,11.54
2018-11-12T18:52:46.904Z,11.64
2018-11-12T18:55:29.212Z,11.60
2018-11-12T18:58:10.505Z,11.55
2018-11-12T19:00:46.356Z,11.51
2018-11-12T19:03:22.966Z,11.48
2018-11-12T19:06:00.645Z,11.45
2018-11-12T19:08:38.175Z,11.43
2018-11-12T19:11:35.034Z,11.40
2018-11-12T19:14:08.921Z,11.38
2018-11-12T19:16:46.661Z,11.34
2018-11-12T19:19:27.853Z,11.32
2018-11-12T19:22:08.219Z,11.32
2018-11-12T19:24:58.707Z,11.33
2018-11-12T19:27:35.034Z,11.37
2018-11-12T19:30:51.178Z,11.33
2018-11-12T19:33:28.611Z,11.29
2018-11-12T19:36:06.174Z,11.26
2018-11-12T19:38:46.217Z,11.25
2018-11-12T19:41:20.493Z,11.28
2018-11-12T19:43:57.689Z,11.25
2018-11-12T19:46:37.368Z,11.20
2018-11-12T19:49:20.662Z,11.16
2018-11-12T19:51:58.881Z,11.18
2018-11-12T19:54:35.971Z,11.19
2018-11-12T19:57:12.145Z,11.23
2018-11-12T19:59:53.801Z,11.24
2018-11-12T20:02:28.563Z,11.22
2018-11-12T20:05:03.881Z,11.20
2018-11-12T20:07:41.860Z,11.21
2018-11-12T20:10:21.653Z,11.20
2018-11-12T20:13:04.435Z,11.19
2018-11-12T20:15:47.795Z,11.18
2018-11-12T20:18:26.424Z,11.21
2018-11-12T20:21:12.728Z,11.19
2018-11-12T20:23:49.151Z,11.19
2018-11-12T20:26:27.524Z,11.18
2018-11-12T20:29:06.843Z,11.16
2018-11-12T20:31:47.734Z,11.13
2018-11-12T20:34:22.204Z,11.09
2018-11-12T20:37:09.796Z,11.08
2018-11-12T20:39:44.027Z,11.07
2018-11-12T20:42:22.605Z,11.08
2018-11-12T20:44:56.966Z,11.05
2018-11-12T20:47:41.171Z,10.99
2018-11-12T20:50:17.522Z,10.96
2018-11-12T20:52:57.707Z,10.94
2018-11-12T20:55:41.161Z,10.91
2018-11-12T20:58:20.990Z,10.94
2018-11-12T21:01:01.394Z,10.95
2018-11-12T21:03:35.534Z,10.97
2018-11-12T21:06:13.746Z,10.90
2018-11-12T21:08:58.118Z,10.84
2018-11-12T21:11:32.710Z,10.82
2018-11-12T21:14:07.002Z,10.80
2018-11-12T21:16:52.957Z,10.79
2018-11-12T21:19:33.672Z,10.77
2018-11-12T21:22:15.108Z,10.80
2018-11-12T21:24:51.193Z,10.82
2018-11-12T21:27:29.831Z,10.79
2018-11-12T21:30:09.308Z,10.77
2018-11-12T21:32:47.435Z,10.76
2018-11-12T21:35:24.593Z,10.77
2018-11-12T21:38:00.277Z,10.76
2018-11-12T21:40:39.798Z,10.74
2018-11-12T21:43:18.620Z,10.70
2018-11-12T21:46:01.332Z,10.67
2018-11-12T21:48:39.825Z,10.65
2018-11-12T21:51:17.387Z,10.65
2018-11-12T21:54:04.103Z,10.66
2018-11-12T21:56:40.244Z,10.65
2018-11-12T21:59:20.128Z,10.63
2018-11-12T22:02:04.427Z,10.62
2018-11-12T22:04:38.662Z,10.57
2018-11-12T22:07:16.661Z,10.59
2018-11-12T22:09:52.117Z,10.56
2018-11-12T22:12:28.661Z,10.58
2018-11-12T22:15:06.719Z,10.55
2018-11-12T22:17:43.334Z,10.52
2018-11-12T22:20:19.975Z,10.49
2018-11-12T22:22:55.501Z,10.46
2018-11-12T22:25:30.783Z,10.44
2018-11-12T22:28:07.402Z,10.43
2018-11-12T22:30:41.724Z,10.40
2018-11-12T22:33:24.826Z,10.38
2018-11-12T22:36:00.357Z,10.36
2018-11-12T22:38:38.461Z,10.34
2018-11-12T22:41:23.840Z,10.32
2018-11-12T22:44:02.139Z,10.33
2018-11-12T22:46:38.916Z,10.30
2018-11-12T22:49:15.834Z,10.27
2018-11-12T22:51:51.366Z,10.28
2018-11-12T22:54:51.181Z,10.27
2018-11-12T22:57:29.967Z,10.25
2018-11-12T23:00:28.616Z,10.23
2018-11-12T23:03:02.480Z,10.19
2018-11-12T23:05:36.745Z,10.16
2018-11-12T23:08:16.567Z,10.11
2018-11-12T23:10:50.689Z,10.05
2018-11-12T23:13:25.267Z,10.05
2018-11-12T23:15:58.947Z,10.08
2018-11-12T23:18:35.726Z,10.07
2018-11-12T23:21:18.630Z,10.06
2018-11-12T23:23:52.258Z,10.07
2018-11-12T23:26:30.414Z,10.08
2018-11-12T23:29:07.746Z,10.09
2018-11-12T23:31:42.687Z,10.07
2018-11-12T23:34:16.726Z,10.04
2018-11-12T23:36:50.833Z,10.02
2018-11-12T23:39:26.700Z,10.02
2018-11-12T23:42:02.424Z,9.97
2018-11-12T23:44:36.683Z,9.94
2018-11-12T23:47:10.444Z,9.96
2018-11-12T23:49:43.030Z,9.90
2018-11-12T23:52:17.844Z,9.83
2018-11-12T23:54:55.207Z,9.80
2018-11-12T23:57:31.157Z,9.79
